Time;durP1;ratioP1;P1;durP2;ratioP2;P2;SDS_P1;SDS_P2;PMS_P1;PMS_P2;Temp;Humidity;BMP_temperature;BMP_pressure;BME280_temperature;BME280_humidity;BME280_pressure;Samples;Min_cycle;Max_cycle;Signal;HPM_P1;HPM_P2
2022/01/04 00:00:21;;;;;;;1.67;0.75;;;12.40;99.90;;;;;;4998648;28;20030;-82
2022/01/04 00:02:47;;;;;;;0.00;0.00;;;12.40;99.90;;;;;;4992261;28;20022;-82
2022/01/04 00:05:13;;;;;;;0.10;0.00;;;12.40;99.90;;;;;;4993324;28;20552;-81
2022/01/04 00:07:38;;;;;;;0.13;0.13;;;12.50;99.90;;;;;;4993680;28;20386;-82
2022/01/04 00:10:08;;;;;;;0.00;0.00;;;12.50;99.90;;;;;;4992060;28;20030;-81
2022/01/04 00:15:19;;;;;;;0.00;0.00;;;12.60;99.90;;;;;;4993532;28;20448;-82
2022/01/04 00:17:45;;;;;;;1.45;0.75;;;12.70;99.90;;;;;;4992589;28;20058;-82
2022/01/04 00:20:11;;;;;;;0.00;0.00;;;12.80;99.90;;;;;;4993140;28;20050;-81
2022/01/04 00:22:37;;;;;;;0.00;0.00;;;12.80;99.90;;;;;;4993231;28;20018;-80
2022/01/04 00:25:04;;;;;;;0.00;0.00;;;12.80;99.90;;;;;;5024775;28;20022;-81
2022/01/04 00:27:30;;;;;;;0.00;0.00;;;12.90;99.90;;;;;;5009948;28;20030;-81
2022/01/04 00:29:55;;;;;;;0.08;0.08;;;12.80;99.90;;;;;;5012911;28;20037;-82
2022/01/04 00:32:21;;;;;;;0.00;0.00;;;12.80;99.90;;;;;;5012897;28;20034;-82
2022/01/04 00:34:47;;;;;;;0.10;0.10;;;12.80;99.90;;;;;;5012800;28;20057;-86
2022/01/04 00:37:13;;;;;;;0.28;0.28;;;12.70;99.90;;;;;;5012504;28;20037;-80
2022/01/04 00:39:38;;;;;;;0.38;0.38;;;12.70;99.90;;;;;;5011338;28;20046;-84
2022/01/04 00:42:04;;;;;;;0.45;0.45;;;12.70;99.90;;;;;;5012605;28;20021;-80
2022/01/04 00:44:30;;;;;;;0.00;0.00;;;12.80;99.90;;;;;;5012786;28;20030;-85
2022/01/04 00:46:56;;;;;;;13.73;1.27;;;12.80;99.90;;;;;;5012831;28;20064;-79
2022/01/04 00:49:22;;;;;;;0.00;0.00;;;12.80;99.90;;;;;;5011983;28;20495;-80
2022/01/04 00:51:51;;;;;;;0.15;0.15;;;12.80;99.90;;;;;;5012422;28;20021;-85
2022/01/04 00:54:17;;;;;;;1.25;0.30;;;12.80;99.90;;;;;;5012408;28;20026;-85
2022/01/04 00:56:45;;;;;;;6.65;1.90;;;12.90;99.90;;;;;;5012820;28;20057;-84
2022/01/04 00:59:10;;;;;;;0.00;0.00;;;12.90;99.90;;;;;;5007355;28;20048;-84
2022/01/04 01:01:37;;;;;;;0.00;0.00;;;13.00;99.90;;;;;;4990701;28;20029;-81
2022/01/04 01:04:04;;;;;;;0.00;0.00;;;13.10;99.90;;;;;;5007830;28;20397;-83
2022/01/04 01:06:30;;;;;;;0.75;0.22;;;13.20;99.90;;;;;;4992822;28;20019;-82
2022/01/04 01:08:55;;;;;;;0.10;0.10;;;13.20;99.90;;;;;;5024143;28;20378;-85
2022/01/04 01:11:21;;;;;;;0.00;0.00;;;13.10;99.90;;;;;;4991969;28;20037;-86
2022/01/04 01:13:47;;;;;;;0.00;0.00;;;13.00;99.90;;;;;;4992275;28;20132;-88
2022/01/04 01:16:13;;;;;;;2.92;1.98;;;12.90;99.90;;;;;;4992806;28;20503;-90
2022/01/04 01:18:39;;;;;;;0.88;0.80;;;12.80;99.90;;;;;;4992488;28;20034;-81
2022/01/04 01:21:06;;;;;;;0.00;0.00;;;12.70;99.90;;;;;;4992632;28;20508;-84
2022/01/04 01:23:33;;;;;;;0.77;0.77;;;12.70;99.90;;;;;;4992652;28;20031;-83
2022/01/04 01:26:00;;;;;;;0.00;0.00;;;12.60;99.90;;;;;;4995811;28;20393;-86
2022/01/04 01:28:27;;;;;;;0.00;0.00;;;12.60;99.90;;;;;;5012007;28;20513;-79
2022/01/04 01:30:53;;;;;;;0.00;0.00;;;12.60;99.90;;;;;;5014618;28;20096;-77
2022/01/04 01:33:23;;;;;;;0.05;0.05;;;12.60;99.90;;;;;;5015769;28;20572;-84
2022/01/04 01:35:49;;;;;;;0.17;0.10;;;12.60;99.90;;;;;;5015862;28;20457;-83
2022/01/04 01:38:16;;;;;;;0.90;0.90;;;12.60;99.90;;;;;;5016053;28;20018;-85
2022/01/04 01:40:43;;;;;;;2.75;0.68;;;12.60;99.90;;;;;;5014360;28;20113;-75
2022/01/04 01:43:09;;;;;;;0.05;0.05;;;12.60;99.90;;;;;;5015806;28;20025;-78
2022/01/04 01:45:36;;;;;;;0.52;0.52;;;12.60;99.90;;;;;;5015830;28;20097;-83
2022/01/04 01:48:01;;;;;;;0.52;0.52;;;12.50;99.90;;;;;;5015384;28;20030;-83
2022/01/04 01:50:27;;;;;;;0.00;0.00;;;12.50;99.90;;;;;;5015127;28;20082;-81
2022/01/04 01:52:54;;;;;;;0.00;0.00;;;12.50;99.90;;;;;;5015505;28;20058;-78
2022/01/04 01:55:21;;;;;;;7.65;2.75;;;12.50;99.90;;;;;;5015629;28;20030;-80
2022/01/04 01:57:48;;;;;;;0.00;0.00;;;12.40;99.90;;;;;;5015588;28;20030;-83
2022/01/04 02:00:16;;;;;;;0.05;0.05;;;12.40;99.90;;;;;;5015106;28;20061;-83
2022/01/04 02:02:42;;;;;;;3.38;1.13;;;12.40;99.90;;;;;;5014043;28;20026;-82
2022/01/04 02:05:09;;;;;;;21.45;3.00;;;12.40;99.90;;;;;;5015344;28;20025;-80
2022/01/04 02:07:37;;;;;;;0.00;0.00;;;12.40;99.90;;;;;;5015273;28;20022;-80
2022/01/04 02:10:05;;;;;;;0.00;0.00;;;12.40;99.90;;;;;;5015202;28;20496;-81
2022/01/04 02:12:34;;;;;;;0.00;0.00;;;12.40;99.90;;;;;;5015412;28;20065;-82
2022/01/04 02:15:00;;;;;;;0.00;0.00;;;12.40;99.90;;;;;;5014188;28;20075;-81
2022/01/04 02:17:27;;;;;;;3.42;1.23;;;12.40;99.90;;;;;;5015186;28;20544;-81
2022/01/04 02:19:57;;;;;;;1.15;0.40;;;12.40;99.90;;;;;;5015049;28;20030;-81
2022/01/04 02:22:23;;;;;;;1.88;1.08;;;12.40;99.90;;;;;;5013536;28;20026;-81
2022/01/04 02:24:48;;;;;;;0.43;0.43;;;12.40;99.90;;;;;;5013748;28;20032;-85
2022/01/04 02:27:15;;;;;;;0.50;0.50;;;12.40;99.90;;;;;;5014902;28;20444;-81
2022/01/04 02:29:41;;;;;;;0.20;0.20;;;12.40;99.90;;;;;;5014679;28;20050;-80
2022/01/04 02:32:08;;;;;;;0.00;0.00;;;12.40;99.90;;;;;;5015161;28;20069;-85
2022/01/04 02:34:34;;;;;;;0.00;0.00;;;12.40;99.90;;;;;;5014846;28;20485;-77
2022/01/04 02:37:00;;;;;;;0.00;0.00;;;12.40;99.90;;;;;;5014407;28;20034;-80
2022/01/04 02:39:26;;;;;;;2.65;0.40;;;12.40;99.90;;;;;;5014554;28;20033;-84
2022/01/04 02:41:52;;;;;;;0.90;0.60;;;12.50;99.90;;;;;;5014440;28;20025;-84
2022/01/04 02:44:18;;;;;;;1.45;0.65;;;12.60;99.90;;;;;;5014819;28;20033;-84
2022/01/04 02:46:44;;;;;;;0.05;0.05;;;12.60;99.90;;;;;;5014570;28;20030;-82
2022/01/04 02:49:10;;;;;;;0.00;0.00;;;12.60;99.90;;;;;;5014213;28;20072;-83
2022/01/04 02:51:35;;;;;;;0.00;0.00;;;12.60;99.90;;;;;;5014101;28;20034;-82
2022/01/04 02:54:01;;;;;;;0.00;0.00;;;12.50;99.90;;;;;;5014195;28;20022;-83
2022/01/04 02:56:27;;;;;;;0.63;0.63;;;12.50;99.90;;;;;;5014282;28;20550;-86
2022/01/04 02:58:53;;;;;;;0.00;0.00;;;12.60;99.90;;;;;;5014276;28;20049;-83
2022/01/04 03:01:19;;;;;;;0.00;0.00;;;12.60;99.90;;;;;;5014089;28;20500;-81
2022/01/04 03:03:44;;;;;;;0.00;0.00;;;12.60;99.90;;;;;;5012917;28;20037;-86
2022/01/04 03:06:14;;;;;;;2.33;0.52;;;12.80;99.90;;;;;;5013588;28;20026;-86
2022/01/04 03:08:40;;;;;;;0.85;0.75;;;12.80;99.90;;;;;;5014158;28;20105;-81
2022/01/04 03:11:05;;;;;;;0.00;0.00;;;12.80;99.90;;;;;;5014038;28;20597;-83
2022/01/04 03:13:31;;;;;;;2.35;1.23;;;12.80;99.90;;;;;;5014130;28;20386;-83
2022/01/04 03:15:56;;;;;;;0.50;0.50;;;12.70;99.90;;;;;;5013468;28;20145;-83
2022/01/04 03:18:22;;;;;;;0.15;0.15;;;12.70;99.90;;;;;;5012558;28;20083;-80
2022/01/04 03:20:48;;;;;;;1.45;1.27;;;12.80;99.90;;;;;;5012365;28;20029;-84
2022/01/04 03:23:13;;;;;;;0.00;0.00;;;12.90;99.90;;;;;;5013810;28;20022;-80
2022/01/04 03:25:40;;;;;;;0.00;0.00;;;12.90;99.90;;;;;;5013752;28;20030;-85
2022/01/04 03:28:06;;;;;;;0.00;0.00;;;12.90;99.90;;;;;;5014022;28;20034;-85
2022/01/04 03:30:33;;;;;;;0.00;0.00;;;12.90;99.90;;;;;;5018568;28;20064;-85
2022/01/04 03:32:59;;;;;;;0.00;0.00;;;12.80;99.90;;;;;;5028419;28;20025;-86
2022/01/04 03:35:25;;;;;;;0.00;0.00;;;12.80;99.90;;;;;;5027777;28;20026;-86
2022/01/04 03:37:51;;;;;;;8.38;1.77;;;12.80;99.90;;;;;;5013792;28;20106;-84
2022/01/04 03:40:17;;;;;;;0.00;0.00;;;12.90;99.90;;;;;;5006782;28;20026;-87
2022/01/04 03:42:53;;;;;;;0.15;0.15;;;12.90;99.90;;;;;;5000023;28;20019;-79
2022/01/04 03:45:18;;;;;;;0.00;0.00;;;13.10;99.90;;;;;;4997222;28;20023;-84
2022/01/04 03:47:44;;;;;;;0.38;0.10;;;13.20;99.90;;;;;;5006494;28;20038;-79
2022/01/04 03:50:10;;;;;;;0.17;0.17;;;13.30;99.90;;;;;;5013706;28;20053;-82
2022/01/04 03:52:36;;;;;;;0.73;0.40;;;13.30;99.90;;;;;;5012480;28;20041;-84
2022/01/04 03:55:07;;;;;;;0.00;0.00;;;13.30;99.90;;;;;;5012061;28;20029;-79
2022/01/04 03:57:33;;;;;;;0.15;0.15;;;13.20;99.90;;;;;;5013444;28;20033;-80
2022/01/04 03:59:59;;;;;;;0.00;0.00;;;13.20;99.90;;;;;;5013141;28;20477;-80
2022/01/04 04:02:24;;;;;;;0.00;0.00;;;13.10;99.90;;;;;;5013120;28;20029;-78
2022/01/04 04:04:50;;;;;;;0.47;0.30;;;13.00;99.90;;;;;;5011636;28;20022;-83
2022/01/04 04:07:16;;;;;;;3.42;1.10;;;13.00;99.90;;;;;;5013053;28;20025;-78
2022/01/04 04:09:41;;;;;;;0.00;0.00;;;12.90;99.90;;;;;;5013127;28;20401;-80
2022/01/04 04:12:08;;;;;;;0.05;0.05;;;12.90;99.90;;;;;;5011935;28;20026;-80
2022/01/04 04:14:33;;;;;;;0.10;0.10;;;12.80;99.90;;;;;;5012920;28;20036;-83
2022/01/04 04:16:59;;;;;;;0.00;0.00;;;12.80;99.90;;;;;;5011593;28;20270;-86
2022/01/04 04:19:25;;;;;;;1.40;0.95;;;12.90;99.90;;;;;;5012656;28;20064;-84
2022/01/04 04:21:50;;;;;;;0.25;0.25;;;12.90;99.90;;;;;;5011406;28;20029;-83
2022/01/04 04:24:16;;;;;;;0.60;0.10;;;13.00;99.90;;;;;;5012948;28;20092;-82
2022/01/04 04:26:41;;;;;;;18.52;2.53;;;13.00;99.90;;;;;;5012808;28;20469;-81
2022/01/04 04:29:09;;;;;;;0.20;0.20;;;13.00;99.90;;;;;;5011330;28;20575;-81
2022/01/04 04:31:35;;;;;;;0.25;0.25;;;13.00;99.90;;;;;;5012262;28;20021;-83
2022/01/04 04:34:00;;;;;;;1.40;1.30;;;13.00;99.90;;;;;;5012768;28;20064;-84
2022/01/04 04:36:27;;;;;;;0.15;0.15;;;13.00;99.90;;;;;;5012884;28;20033;-83
2022/01/04 04:38:52;;;;;;;0.65;0.52;;;13.00;99.90;;;;;;5012732;28;20133;-84
2022/01/04 04:41:18;;;;;;;1.35;0.65;;;13.10;99.90;;;;;;5012595;28;20086;-83
2022/01/04 04:43:45;;;;;;;6.65;2.55;;;13.20;99.90;;;;;;5011545;28;20374;-83
2022/01/04 04:46:11;;;;;;;0.65;0.65;;;13.20;99.90;;;;;;5012628;28;20018;-82
2022/01/04 04:48:37;;;;;;;0.00;0.00;;;13.30;99.90;;;;;;5012702;28;20543;-82
2022/01/04 04:51:02;;;;;;;5.53;2.03;;;13.30;99.90;;;;;;5012063;28;20034;-81
2022/01/04 04:53:28;;;;;;;2.72;0.52;;;13.30;99.90;;;;;;5011286;28;20022;-85
2022/01/04 04:55:54;;;;;;;0.20;0.20;;;13.40;99.90;;;;;;5012662;28;20038;-87
2022/01/04 04:58:19;;;;;;;0.03;0.03;;;13.40;99.90;;;;;;5013015;28;20076;-87
2022/01/04 05:00:45;;;;;;;0.70;0.50;;;13.50;99.90;;;;;;5012339;28;20029;-83
2022/01/04 05:03:10;;;;;;;0.00;0.00;;;13.50;99.90;;;;;;5012455;28;20018;-80
2022/01/04 05:05:36;;;;;;;0.75;0.75;;;13.70;99.90;;;;;;5014347;28;20469;-83
2022/01/04 05:08:02;;;;;;;0.68;0.68;;;13.70;99.90;;;;;;5016535;28;20068;-83
2022/01/04 05:10:27;;;;;;;0.10;0.10;;;13.70;99.90;;;;;;5016140;28;20033;-89
2022/01/04 05:12:53;;;;;;;0.00;0.00;;;13.70;99.90;;;;;;5015163;28;20516;-88
2022/01/04 05:15:19;;;;;;;0.00;0.00;;;13.70;99.90;;;;;;5016031;28;20060;-87
2022/01/04 05:17:44;;;;;;;0.00;0.00;;;13.80;99.90;;;;;;5016041;28;20030;-84
2022/01/04 05:20:10;;;;;;;0.00;0.00;;;13.80;99.90;;;;;;5015969;28;20065;-80
2022/01/04 05:22:36;;;;;;;6.28;1.30;;;13.80;99.90;;;;;;5016402;28;20018;-86
2022/01/04 05:25:01;;;;;;;0.00;0.00;;;13.70;99.90;;;;;;5016218;28;20026;-88
2022/01/04 05:27:27;;;;;;;0.28;0.28;;;13.40;99.90;;;;;;5016308;28;20033;-87
2022/01/04 05:29:53;;;;;;;0.50;0.25;;;13.20;99.90;;;;;;5016074;28;20092;-85
2022/01/04 05:32:18;;;;;;;0.00;0.00;;;12.90;99.90;;;;;;5016272;28;20112;-86
2022/01/04 05:34:44;;;;;;;0.80;0.80;;;12.70;99.90;;;;;;5016315;28;20113;-85
2022/01/04 05:37:09;;;;;;;0.17;0.17;;;12.50;99.90;;;;;;5014610;28;20022;-85
2022/01/04 05:39:35;;;;;;;0.00;0.00;;;12.10;99.90;;;;;;5015725;28;20068;-85
2022/01/04 05:42:01;;;;;;;0.00;0.00;;;11.80;99.90;;;;;;5016473;28;20449;-84
2022/01/04 05:44:26;;;;;;;0.00;0.00;;;11.60;99.90;;;;;;5016272;28;20080;-86
2022/01/04 05:46:52;;;;;;;0.00;0.00;;;11.40;99.90;;;;;;5015743;28;20366;-85
2022/01/04 05:49:18;;;;;;;0.77;0.60;;;11.30;99.90;;;;;;5015121;28;20033;-86
2022/01/04 05:51:43;;;;;;;1.40;0.47;;;11.20;99.90;;;;;;5015482;28;20096;-85
2022/01/04 05:54:09;;;;;;;0.45;0.22;;;11.10;99.90;;;;;;5015344;28;20603;-84
2022/01/04 05:56:35;;;;;;;0.00;0.00;;;11.00;99.90;;;;;;5013353;28;20037;-84
2022/01/04 05:59:01;;;;;;;0.00;0.00;;;10.90;99.90;;;;;;5014830;28;20030;-84
2022/01/04 06:01:26;;;;;;;17.52;1.85;;;10.90;99.90;;;;;;5015205;28;20057;-86
2022/01/04 06:03:53;;;;;;;0.00;0.00;;;10.80;99.90;;;;;;5014074;28;20087;-85
2022/01/04 06:06:19;;;;;;;0.00;0.00;;;10.80;99.90;;;;;;5013643;28;20029;-84
2022/01/04 06:08:45;;;;;;;0.00;0.00;;;10.80;99.90;;;;;;5014687;28;20025;-84
2022/01/04 06:11:30;;;;;;;0.32;0.17;;;10.80;99.90;;;;;;5011626;28;20374;-85
2022/01/04 06:16:40;;;;;;;0.00;0.00;;;10.70;99.90;;;;;;5014347;28;20500;-85
2022/01/04 06:19:06;;;;;;;0.00;0.00;;;10.70;99.90;;;;;;5014679;28;20061;-83
2022/01/04 06:21:32;;;;;;;6.65;2.25;;;10.70;99.90;;;;;;5014667;28;20033;-85
2022/01/04 06:23:57;;;;;;;0.00;0.00;;;10.70;99.90;;;;;;5015125;28;20036;-85
2022/01/04 06:26:24;;;;;;;0.00;0.00;;;10.70;99.90;;;;;;5014736;28;20060;-85
2022/01/04 06:28:50;;;;;;;0.00;0.00;;;10.70;99.90;;;;;;5014386;28;20539;-85
2022/01/04 06:31:16;;;;;;;0.00;0.00;;;10.60;99.90;;;;;;5014817;28;20026;-84
2022/01/04 06:33:43;;;;;;;0.00;0.00;;;10.50;99.90;;;;;;5014992;28;20026;-84
2022/01/04 06:36:09;;;;;;;0.00;0.00;;;10.40;99.90;;;;;;5014415;28;20052;-84
2022/01/04 06:38:34;;;;;;;0.00;0.00;;;10.40;99.90;;;;;;5008901;28;20022;-84
2022/01/04 06:41:00;;;;;;;0.00;0.00;;;10.50;99.90;;;;;;5014438;28;20088;-86
2022/01/04 06:43:26;;;;;;;0.17;0.10;;;10.50;99.90;;;;;;5014511;28;20065;-84
2022/01/04 06:45:51;;;;;;;0.00;0.00;;;10.50;99.90;;;;;;5014891;28;20025;-84
2022/01/04 06:48:17;;;;;;;0.00;0.00;;;10.50;99.90;;;;;;5013936;28;20032;-86
2022/01/04 06:50:43;;;;;;;0.00;0.00;;;10.40;99.90;;;;;;5013651;28;20474;-86
2022/01/04 06:53:08;;;;;;;0.00;0.00;;;10.50;99.90;;;;;;5012586;28;20022;-85
2022/01/04 06:55:34;;;;;;;0.00;0.00;;;10.50;99.90;;;;;;5014242;28;20026;-85
2022/01/04 06:57:59;;;;;;;0.00;0.00;;;10.50;99.90;;;;;;5014210;28;20033;-85
2022/01/04 07:00:25;;;;;;;0.00;0.00;;;10.40;99.90;;;;;;5013966;28;20026;-85
2022/01/04 07:02:51;;;;;;;0.25;0.25;;;10.50;99.90;;;;;;5011632;28;20046;-85
2022/01/04 07:05:17;;;;;;;0.00;0.00;;;10.40;99.90;;;;;;5013894;28;20041;-85
2022/01/04 07:07:42;;;;;;;0.00;0.00;;;10.40;99.90;;;;;;5012611;28;20037;-85
2022/01/04 07:10:08;;;;;;;0.00;0.00;;;10.40;99.90;;;;;;5013685;28;20029;-84
2022/01/04 07:12:34;;;;;;;0.00;0.00;;;10.40;99.90;;;;;;5016729;28;20047;-86
2022/01/04 07:14:59;;;;;;;0.00;0.00;;;10.40;99.90;;;;;;5012621;28;20048;-87
2022/01/04 07:17:25;;;;;;;0.00;0.00;;;10.40;99.90;;;;;;5016526;28;20033;-87
2022/01/04 07:19:51;;;;;;;0.00;0.00;;;10.40;99.90;;;;;;5011012;28;20145;-83
2022/01/04 07:22:16;;;;;;;0.00;0.00;;;10.40;99.90;;;;;;5014751;28;20073;-83
2022/01/04 07:24:42;;;;;;;0.10;0.10;;;10.40;99.90;;;;;;5025034;28;20018;-85
2022/01/04 07:27:08;;;;;;;0.00;0.00;;;10.40;99.90;;;;;;5020548;28;20056;-85
2022/01/04 07:29:34;;;;;;;0.00;0.00;;;10.40;99.90;;;;;;5021988;28;20045;-86
2022/01/04 07:31:59;;;;;;;0.00;0.00;;;10.40;99.90;;;;;;5018025;28;20377;-82
2022/01/04 07:34:25;;;;;;;0.00;0.00;;;10.40;99.90;;;;;;5012151;28;20022;-83
2022/01/04 07:36:51;;;;;;;0.00;0.00;;;10.30;99.90;;;;;;5011998;28;20034;-85
2022/01/04 07:39:16;;;;;;;0.00;0.00;;;10.30;99.90;;;;;;5012541;28;20026;-85
2022/01/04 07:41:42;;;;;;;0.00;0.00;;;10.30;99.90;;;;;;5012898;28;20098;-84
2022/01/04 07:44:08;;;;;;;0.00;0.00;;;10.20;99.90;;;;;;5012413;28;20369;-85
2022/01/04 07:46:33;;;;;;;0.00;0.00;;;10.20;99.90;;;;;;5011006;28;20034;-83
2022/01/04 07:48:59;;;;;;;0.00;0.00;;;10.20;99.90;;;;;;5011987;28;20358;-85
2022/01/04 07:51:25;;;;;;;0.00;0.00;;;10.10;99.90;;;;;;5010785;28;20033;-85
2022/01/04 07:53:50;;;;;;;0.00;0.00;;;10.10;99.90;;;;;;5016529;28;20439;-85
2022/01/04 07:56:16;;;;;;;0.13;0.13;;;10.10;99.90;;;;;;5043995;28;20047;-86
2022/01/04 07:58:42;;;;;;;0.00;0.00;;;10.10;99.90;;;;;;5031801;28;20104;-85
2022/01/04 08:01:07;;;;;;;0.10;0.00;;;10.10;99.90;;;;;;5007678;28;20036;-83
2022/01/04 08:03:33;;;;;;;0.00;0.00;;;10.10;99.90;;;;;;5011776;28;20026;-82
2022/01/04 08:05:59;;;;;;;0.00;0.00;;;10.00;99.90;;;;;;5009248;28;20018;-83
2022/01/04 08:08:24;;;;;;;0.00;0.00;;;10.00;99.90;;;;;;5010371;28;20471;-81
2022/01/04 08:10:51;;;;;;;0.00;0.00;;;10.00;99.90;;;;;;5011310;28;20540;-83
2022/01/04 08:13:17;;;;;;;0.00;0.00;;;10.10;99.90;;;;;;5008345;28;20504;-82
2022/01/04 08:15:43;;;;;;;0.00;0.00;;;10.00;99.90;;;;;;5004845;28;20030;-83
2022/01/04 08:18:08;;;;;;;0.00;0.00;;;10.00;99.90;;;;;;5001500;28;20088;-81
2022/01/04 08:20:35;;;;;;;0.00;0.00;;;10.00;99.90;;;;;;5011243;28;20178;-83
2022/01/04 08:23:02;;;;;;;0.00;0.00;;;9.90;99.90;;;;;;5011129;28;20104;-83
2022/01/04 08:25:28;;;;;;;0.00;0.00;;;9.90;99.90;;;;;;5015105;28;20041;-81
2022/01/04 08:27:54;;;;;;;0.85;0.15;;;9.90;99.90;;;;;;5012246;28;20033;-83
2022/01/04 08:30:20;;;;;;;0.00;0.00;;;9.90;99.90;;;;;;5011909;28;20026;-83
2022/01/04 08:32:46;;;;;;;0.00;0.00;;;9.90;99.90;;;;;;5028021;28;20017;-83
2022/01/04 08:35:12;;;;;;;0.00;0.00;;;9.80;99.90;;;;;;5034045;28;20033;-82
2022/01/04 08:37:39;;;;;;;0.00;0.00;;;9.80;99.90;;;;;;5014994;28;20025;-83
2022/01/04 08:40:06;;;;;;;0.00;0.00;;;9.80;99.90;;;;;;5012415;28;20037;-83
2022/01/04 08:42:32;;;;;;;0.00;0.00;;;9.80;99.90;;;;;;5012011;28;20046;-83
2022/01/04 08:44:58;;;;;;;0.00;0.00;;;9.80;99.90;;;;;;5010642;28;20034;-83
2022/01/04 08:47:23;;;;;;;0.00;0.00;;;9.80;99.90;;;;;;5012200;28;20042;-83
2022/01/04 08:49:49;;;;;;;0.00;0.00;;;9.80;99.90;;;;;;5009763;28;20022;-83
2022/01/04 08:52:15;;;;;;;0.00;0.00;;;9.80;99.90;;;;;;5010925;28;20026;-83
2022/01/04 08:54:41;;;;;;;0.00;0.00;;;9.80;99.90;;;;;;5012004;28;20495;-82
2022/01/04 08:57:07;;;;;;;0.00;0.00;;;9.70;99.90;;;;;;5038124;28;20025;-82
2022/01/04 08:59:33;;;;;;;0.00;0.00;;;9.80;99.90;;;;;;5033753;28;20050;-83
2022/01/04 09:01:59;;;;;;;0.00;0.00;;;9.80;99.90;;;;;;5010655;28;20110;-84
2022/01/04 09:04:25;;;;;;;0.00;0.00;;;9.80;99.90;;;;;;5014679;28;20041;-82
2022/01/04 09:06:51;;;;;;;0.00;0.00;;;9.70;99.90;;;;;;5012725;28;20497;-83
2022/01/04 09:09:17;;;;;;;0.10;0.10;;;9.80;99.90;;;;;;5010976;28;20033;-82
2022/01/04 09:11:44;;;;;;;0.00;0.00;;;9.80;99.90;;;;;;5015322;28;20369;-82
2022/01/04 09:19:25;;;;;;;0.00;0.00;;;9.80;99.90;;;;;;5018557;28;20088;-84
2022/01/04 09:21:51;;;;;;;0.20;0.20;;;9.80;99.90;;;;;;5016317;28;20014;-81
2022/01/04 09:24:17;;;;;;;0.30;0.08;;;9.80;99.90;;;;;;5032792;28;20032;-82
2022/01/04 09:26:43;;;;;;;0.10;0.10;;;9.80;99.90;;;;;;5031541;28;20026;-82
2022/01/04 09:29:09;;;;;;;0.00;0.00;;;9.80;99.90;;;;;;5031149;28;20413;-83
2022/01/04 09:31:35;;;;;;;0.00;0.00;;;9.80;99.90;;;;;;5024946;28;20018;-82
2022/01/04 09:34:02;;;;;;;0.00;0.00;;;9.80;99.90;;;;;;5023128;28;20034;-83
2022/01/04 09:36:34;;;;;;;0.00;0.00;;;9.80;99.90;;;;;;5010037;28;20017;-82
2022/01/04 09:39:00;;;;;;;0.00;0.00;;;9.80;99.90;;;;;;5006600;28;20037;-82
2022/01/04 09:41:27;;;;;;;0.80;0.32;;;9.80;99.90;;;;;;5010819;28;20026;-81
2022/01/04 09:43:53;;;;;;;0.00;0.00;;;9.80;99.90;;;;;;5008298;28;20397;-83
2022/01/04 09:46:19;;;;;;;0.00;0.00;;;9.80;99.90;;;;;;5008218;28;20519;-83
2022/01/04 09:48:45;;;;;;;0.00;0.00;;;9.80;99.90;;;;;;5005490;28;20030;-82
2022/01/04 09:51:12;;;;;;;0.00;0.00;;;9.80;99.90;;;;;;5023320;28;20416;-78
2022/01/04 09:53:38;;;;;;;0.00;0.00;;;9.90;99.90;;;;;;5018417;28;20084;-81
2022/01/04 09:56:04;;;;;;;0.00;0.00;;;9.80;99.90;;;;;;5031939;28;20433;-78
2022/01/04 09:58:30;;;;;;;0.15;0.15;;;9.80;99.90;;;;;;5013261;28;20123;-78
2022/01/04 10:00:56;;;;;;;0.00;0.00;;;9.80;99.90;;;;;;5010983;28;20030;-80
2022/01/04 10:03:28;;;;;;;0.00;0.00;;;9.90;99.90;;;;;;5017690;28;20033;-82
2022/01/04 10:06:14;;;;;;;0.00;0.00;;;9.90;99.90;;;;;;5032676;28;20029;-81
2022/01/04 10:09:04;;;;;;;0.00;0.00;;;9.90;99.90;;;;;;5033435;28;20030;-79
2022/01/04 10:11:47;;;;;;;0.00;0.00;;;10.00;99.90;;;;;;5013912;28;20030;-82
2022/01/04 10:14:36;;;;;;;0.08;0.08;;;10.20;99.90;;;;;;5022500;28;20018;-81
2022/01/04 10:17:07;;;;;;;0.00;0.00;;;10.30;99.90;;;;;;5021007;28;20504;-81
2022/01/04 10:19:42;;;;;;;0.00;0.00;;;10.20;99.90;;;;;;5015093;28;20359;-82
2022/01/04 10:22:25;;;;;;;0.13;0.13;;;10.20;99.90;;;;;;5014084;28;20022;-80
2022/01/04 10:24:50;;;;;;;;;;;10.20;99.90;;;;;;5018460;28;20028;-80
2022/01/04 10:27:26;;;;;;;0.00;0.00;;;10.20;99.90;;;;;;5012539;28;19917;-83
2022/01/04 10:30:08;;;;;;;0.00;0.00;;;10.30;99.90;;;;;;5014940;28;20061;-85
2022/01/04 10:33:07;;;;;;;0.00;0.00;;;10.30;99.90;;;;;;5013934;28;20033;-81
2022/01/04 10:35:46;;;;;;;0.10;0.10;;;10.40;99.90;;;;;;5004605;28;20076;-81
2022/01/04 10:38:21;;;;;;;0.10;0.10;;;10.30;99.90;;;;;;5013721;28;20099;-83
2022/01/04 10:40:51;;;;;;;0.10;0.10;;;10.40;99.90;;;;;;5018828;28;20037;-83
2022/01/04 10:43:19;;;;;;;0.00;0.00;;;10.40;99.90;;;;;;5015175;28;20026;-83
2022/01/04 10:45:46;;;;;;;0.00;0.00;;;10.30;99.90;;;;;;5014115;28;20025;-83
2022/01/04 10:48:25;;;;;;;0.00;0.00;;;10.20;99.90;;;;;;5013306;28;20510;-80
2022/01/04 10:51:07;;;;;;;0.00;0.00;;;10.20;99.90;;;;;;5012600;28;20084;-85
2022/01/04 10:53:50;;;;;;;0.00;0.00;;;10.20;99.90;;;;;;5012098;28;20033;-82
2022/01/04 10:56:24;;;;;;;0.00;0.00;;;10.30;99.90;;;;;;5012438;28;20116;-82
2022/01/04 10:58:53;;;;;;;0.15;0.15;;;10.40;99.90;;;;;;5012864;28;20497;-82
2022/01/04 11:01:22;;;;;;;0.30;0.30;;;10.40;99.90;;;;;;5012431;28;20032;-79
2022/01/04 11:03:49;;;;;;;0.05;0.05;;;10.40;99.90;;;;;;5010855;28;20525;-79
2022/01/04 11:06:19;;;;;;;0.00;0.00;;;10.40;99.90;;;;;;5012476;28;20042;-79
2022/01/04 11:08:45;;;;;;;0.00;0.00;;;10.40;99.90;;;;;;5011580;28;20022;-79
2022/01/04 11:11:11;;;;;;;0.00;0.00;;;10.50;99.90;;;;;;5012612;28;20041;-79
2022/01/04 11:13:37;;;;;;;0.00;0.00;;;10.50;99.90;;;;;;5012904;28;20034;-80
2022/01/04 11:16:04;;;;;;;0.17;0.17;;;10.50;99.90;;;;;;5012628;28;20080;-80
2022/01/04 11:18:30;;;;;;;1.27;1.20;;;10.50;99.90;;;;;;5011556;28;20084;-80
2022/01/04 11:20:57;;;;;;;0.80;0.65;;;10.50;99.90;;;;;;5012559;28;20030;-79
2022/01/04 11:23:29;;;;;;;0.20;0.20;;;10.60;99.90;;;;;;5045395;28;20033;-80
2022/01/04 11:25:56;;;;;;;0.43;0.43;;;10.70;99.90;;;;;;5015172;28;20424;-80
2022/01/04 11:28:26;;;;;;;2.30;1.30;;;10.70;99.90;;;;;;5013531;28;20099;-80
2022/01/04 11:31:15;;;;;;;0.47;0.47;;;10.80;99.90;;;;;;5014368;28;20075;-80
2022/01/04 11:33:50;;;;;;;0.10;0.10;;;10.90;99.90;;;;;;5012400;28;20576;-79
2022/01/04 11:36:19;;;;;;;0.50;0.25;;;10.90;99.90;;;;;;5012705;28;20037;-81
2022/01/04 11:38:45;;;;;;;1.55;0.25;;;10.90;99.90;;;;;;5011930;28;20489;-79
2022/01/04 11:41:34;;;;;;;0.00;0.00;;;11.00;99.90;;;;;;5011731;28;20033;-79
2022/01/04 11:44:20;;;;;;;1.17;0.63;;;11.10;99.90;;;;;;5012141;28;20022;-80
2022/01/04 11:47:25;;;;;;;0.28;0.28;;;11.20;99.90;;;;;;5011108;28;20045;-80
2022/01/04 11:50:18;;;;;;;0.10;0.10;;;11.20;99.90;;;;;;4995530;28;20069;-80
2022/01/04 11:52:46;;;;;;;0.43;0.10;;;11.10;99.90;;;;;;5010064;28;20037;-79
2022/01/04 11:55:23;;;;;;;0.05;0.05;;;11.10;99.90;;;;;;5010988;28;20030;-79
2022/01/04 11:57:51;;;;;;;0.00;0.00;;;11.00;99.90;;;;;;5012053;28;20034;-80
2022/01/04 12:00:39;;;;;;;0.00;0.00;;;10.90;99.90;;;;;;5012204;28;20049;-80
2022/01/04 12:03:06;;;;;;;0.10;0.10;;;11.00;99.90;;;;;;5010352;28;20042;-80
2022/01/04 12:05:32;;;;;;;0.00;0.00;;;11.00;99.90;;;;;;5010718;28;20571;-79
2022/01/04 12:07:59;;;;;;;0.82;0.68;;;11.10;99.90;;;;;;5010754;28;20050;-80
2022/01/04 12:10:25;;;;;;;0.00;0.00;;;11.10;99.90;;;;;;5009345;28;20032;-79
2022/01/04 12:12:58;;;;;;;0.00;0.00;;;11.10;99.90;;;;;;5010277;28;20034;-80
2022/01/04 12:15:33;;;;;;;0.00;0.00;;;11.10;99.90;;;;;;5008479;28;20061;-79
2022/01/04 12:18:08;;;;;;;2.85;2.17;;;11.20;99.90;;;;;;5011613;28;20097;-79
2022/01/04 12:20:43;;;;;;;4.18;0.35;;;11.20;99.90;;;;;;5012874;28;20511;-79
2022/01/04 12:23:26;;;;;;;0.00;0.00;;;11.20;99.90;;;;;;5010837;28;20033;-79
2022/01/04 12:26:14;;;;;;;0.70;0.70;;;11.20;99.90;;;;;;5010744;28;20473;-79
2022/01/04 12:28:58;;;;;;;0.90;0.13;;;11.30;99.90;;;;;;5004879;28;20041;-79
2022/01/04 12:31:25;;;;;;;0.00;0.00;;;11.20;99.90;;;;;;5014945;28;20292;-79
2022/01/04 12:33:58;;;;;;;0.88;0.70;;;11.30;99.90;;;;;;5028918;28;20388;-80
2022/01/04 12:36:40;;;;;;;0.35;0.35;;;11.30;99.90;;;;;;5029271;28;20440;-80
2022/01/04 12:39:18;;;;;;;2.67;1.10;;;11.30;99.90;;;;;;5011458;28;20076;-79
2022/01/04 12:41:46;;;;;;;0.00;0.00;;;11.30;99.90;;;;;;5006634;28;20034;-80
2022/01/04 12:44:14;;;;;;;0.00;0.00;;;11.30;99.90;;;;;;5009355;28;20045;-79
2022/01/04 12:46:46;;;;;;;5.05;0.90;;;11.30;99.90;;;;;;5010894;28;20018;-82
2022/01/04 12:49:17;;;;;;;0.00;0.00;;;11.20;99.90;;;;;;5011459;28;20436;-82
2022/01/04 12:51:50;;;;;;;0.38;0.38;;;11.20;99.90;;;;;;5005975;28;20113;-82
2022/01/04 12:54:26;;;;;;;;;;;11.10;99.90;;;;;;5006048;28;20026;-81
2022/01/04 12:57:00;;;;;;;0.00;0.00;;;11.10;99.90;;;;;;5010501;28;19906;-81
2022/01/04 12:59:26;;;;;;;0.00;0.00;;;11.00;99.90;;;;;;5012841;28;20092;-81
2022/01/04 13:01:58;;;;;;;0.00;0.00;;;11.00;99.90;;;;;;5017419;28;20025;-80